createdAt,value
2023-04-16T00:01:35.985Z,6.80
2023-04-16T00:04:03.215Z,6.80
2023-04-16T00:06:30.442Z,6.80
2023-04-16T00:08:57.156Z,6.90
2023-04-16T00:11:24.083Z,6.80
2023-04-16T00:13:50.982Z,6.80
2023-04-16T00:16:17.730Z,6.80
2023-04-16T00:18:44.547Z,6.80
2023-04-16T00:21:11.328Z,6.80
2023-04-16T00:23:38.129Z,6.80
2023-04-16T00:26:05.000Z,6.80
2023-04-16T00:28:31.728Z,6.80
2023-04-16T00:30:58.768Z,6.80
2023-04-16T00:33:25.490Z,6.80
2023-04-16T00:35:52.447Z,6.80
2023-04-16T00:38:19.308Z,6.80
2023-04-16T00:40:46.083Z,6.80
2023-04-16T00:43:24.721Z,6.80
2023-04-16T00:45:53.356Z,6.80
2023-04-16T00:48:21.379Z,6.80
2023-04-16T00:50:48.798Z,6.80
2023-04-16T00:53:16.201Z,6.80
2023-04-16T00:55:43.827Z,6.80
2023-04-16T00:58:10.536Z,6.80
2023-04-16T01:00:37.283Z,6.80
2023-04-16T01:03:05.493Z,6.80
2023-04-16T01:05:32.404Z,6.80
2023-04-16T01:08:00.838Z,6.80
2023-04-16T01:10:27.602Z,6.80
2023-04-16T01:12:54.401Z,6.80
2023-04-16T01:15:21.116Z,6.80
2023-04-16T01:17:48.078Z,6.80
2023-04-16T01:20:15.533Z,6.80
2023-04-16T01:22:42.746Z,6.80
2023-04-16T01:25:13.472Z,6.80
2023-04-16T01:27:40.439Z,6.80
2023-04-16T01:30:07.764Z,6.80
2023-04-16T01:32:34.504Z,6.80
2023-04-16T01:35:01.219Z,6.80
2023-04-16T01:37:27.916Z,6.70
2023-04-16T01:39:54.814Z,6.70
2023-04-16T01:42:21.468Z,6.70
2023-04-16T01:44:48.166Z,6.70
2023-04-16T01:47:15.050Z,6.80
2023-04-16T01:49:42.654Z,6.70
2023-04-16T01:52:09.350Z,6.80
2023-04-16T01:54:36.012Z,6.80
2023-04-16T01:57:03.159Z,6.70
2023-04-16T01:59:29.877Z,6.70
2023-04-16T02:01:56.808Z,6.70
2023-04-16T02:04:23.574Z,6.70
2023-04-16T02:06:50.317Z,6.70
2023-04-16T02:09:17.040Z,6.70
2023-04-16T02:11:43.901Z,6.70
2023-04-16T02:14:10.576Z,6.70
2023-04-16T02:16:37.401Z,6.70
2023-04-16T02:19:04.583Z,6.70
2023-04-16T02:21:31.811Z,6.70
2023-04-16T02:23:58.651Z,6.70
2023-04-16T02:26:26.520Z,6.70
2023-04-16T02:28:53.475Z,6.70
2023-04-16T02:31:21.790Z,6.70
2023-04-16T02:33:48.706Z,6.70
2023-04-16T02:36:15.553Z,6.70
2023-04-16T02:38:42.312Z,6.70
2023-04-16T02:41:09.038Z,6.70
2023-04-16T02:43:35.889Z,6.80
2023-04-16T02:46:02.793Z,6.70
2023-04-16T02:48:29.622Z,6.70
2023-04-16T02:50:56.373Z,6.70
2023-04-16T02:53:23.058Z,6.60
2023-04-16T02:55:53.898Z,6.70
2023-04-16T02:58:22.598Z,6.70
2023-04-16T03:00:49.658Z,6.70
2023-04-16T03:03:16.750Z,6.70
2023-04-16T03:05:43.744Z,6.70
2023-04-16T03:08:10.978Z,6.60
2023-04-16T03:10:37.947Z,6.60
2023-04-16T03:13:05.225Z,6.70
2023-04-16T03:15:32.232Z,6.70
2023-04-16T03:17:59.549Z,6.60
2023-04-16T03:20:26.284Z,6.70
2023-04-16T03:22:52.957Z,6.60
2023-04-16T03:25:19.759Z,6.60
2023-04-16T03:27:46.489Z,6.60
2023-04-16T03:30:14.325Z,6.70
2023-04-16T03:32:41.367Z,6.60
2023-04-16T03:35:09.034Z,6.60
2023-04-16T03:37:35.910Z,6.60
2023-04-16T03:40:03.504Z,6.60
2023-04-16T03:42:30.347Z,6.60
2023-04-16T03:44:57.384Z,6.60
2023-04-16T03:47:24.188Z,6.60
2023-04-16T03:49:50.995Z,6.60
2023-04-16T03:52:17.754Z,6.60
2023-04-16T03:54:44.467Z,6.60
2023-04-16T03:57:11.118Z,6.60
2023-04-16T03:59:38.011Z,6.60
2023-04-16T04:02:04.797Z,6.60
2023-04-16T04:04:31.594Z,6.60
2023-04-16T04:06:58.338Z,6.60
2023-04-16T04:09:25.030Z,6.60
2023-04-16T04:11:51.991Z,6.60
2023-04-16T04:14:18.680Z,6.50
2023-04-16T04:16:45.680Z,6.60
2023-04-16T04:19:12.555Z,6.50
2023-04-16T04:21:39.249Z,6.60
2023-04-16T04:24:06.045Z,6.60
2023-04-16T04:26:32.787Z,6.50
2023-04-16T04:28:59.483Z,6.50
2023-04-16T04:31:26.441Z,6.60
2023-04-16T04:33:53.219Z,6.50
2023-04-16T04:36:19.888Z,6.50
2023-04-16T04:38:46.705Z,6.50
2023-04-16T04:41:13.368Z,6.60
2023-04-16T04:43:40.245Z,6.50
2023-04-16T04:46:06.998Z,6.50
2023-04-16T04:48:33.741Z,6.50
2023-04-16T04:51:02.432Z,6.50
2023-04-16T04:53:31.025Z,6.50
2023-04-16T04:56:05.440Z,6.50
2023-04-16T04:58:38.673Z,6.60
2023-04-16T05:01:05.943Z,6.50
2023-04-16T05:03:32.767Z,6.50
2023-04-16T05:05:59.635Z,6.50
2023-04-16T05:08:26.364Z,6.60
2023-04-16T05:10:53.234Z,6.50
2023-04-16T05:13:20.085Z,6.50
2023-04-16T05:15:46.833Z,6.50
2023-04-16T05:18:13.593Z,6.50
2023-04-16T05:20:40.418Z,6.50
2023-04-16T05:23:07.214Z,6.50
2023-04-16T05:25:33.979Z,6.50
2023-04-16T05:28:00.924Z,6.50
2023-04-16T05:30:27.770Z,6.50
2023-04-16T05:32:54.523Z,6.50
2023-04-16T05:35:21.354Z,6.50
2023-04-16T05:37:48.039Z,6.40
2023-04-16T05:40:14.864Z,6.50
2023-04-16T05:42:41.592Z,6.50
2023-04-16T05:45:08.780Z,6.50
2023-04-16T05:47:35.536Z,6.50
2023-04-16T05:50:02.261Z,6.50
2023-04-16T05:52:28.968Z,6.50
2023-04-16T05:54:55.964Z,6.50
2023-04-16T05:57:22.635Z,6.40
2023-04-16T05:59:49.290Z,6.50
2023-04-16T06:02:16.305Z,6.40
2023-04-16T06:04:43.777Z,6.50
2023-04-16T06:07:10.580Z,6.50
2023-04-16T06:09:37.295Z,6.50
2023-04-16T06:12:04.526Z,6.40
2023-04-16T06:14:31.227Z,6.40
2023-04-16T06:16:57.988Z,6.40
2023-04-16T06:19:24.699Z,6.40
2023-04-16T06:21:51.556Z,6.40
2023-04-16T06:24:18.528Z,6.40
2023-04-16T06:26:45.667Z,6.40
2023-04-16T06:29:12.344Z,6.40
2023-04-16T06:31:39.092Z,6.50
2023-04-16T06:34:05.832Z,6.40
2023-04-16T06:36:32.685Z,6.40
2023-04-16T06:38:59.412Z,6.40
2023-04-16T06:41:26.693Z,6.40
2023-04-16T06:43:53.609Z,6.50
2023-04-16T06:46:20.473Z,6.40
2023-04-16T06:48:47.269Z,6.50
2023-04-16T06:51:14.179Z,6.40
2023-04-16T06:53:42.414Z,6.40
2023-04-16T06:56:09.155Z,6.40
2023-04-16T06:58:36.355Z,6.50
2023-04-16T07:01:03.253Z,6.40
2023-04-16T07:03:30.175Z,6.50
2023-04-16T07:05:57.316Z,6.50
2023-04-16T07:08:24.864Z,6.40
2023-04-16T07:10:53.755Z,6.50
2023-04-16T07:13:21.740Z,6.40
2023-04-16T07:15:48.495Z,6.50
2023-04-16T07:18:15.777Z,6.50
2023-04-16T07:20:42.888Z,6.50
2023-04-16T07:23:09.685Z,6.50
2023-04-16T07:25:36.338Z,6.50
2023-04-16T07:28:03.748Z,6.50
2023-04-16T07:30:34.237Z,6.50
2023-04-16T07:33:04.424Z,6.50
2023-04-16T07:35:31.553Z,6.50
2023-04-16T07:37:58.295Z,6.60
2023-04-16T07:40:25.067Z,6.50
2023-04-16T07:42:51.821Z,6.60
2023-04-16T07:45:19.209Z,6.60
2023-04-16T07:47:46.108Z,6.50
2023-04-16T07:50:13.324Z,6.50
2023-04-16T07:52:42.370Z,6.60
2023-04-16T07:55:09.458Z,6.60
2023-04-16T07:57:36.848Z,6.60
2023-04-16T08:00:07.576Z,6.60
2023-04-16T08:02:34.564Z,6.60
2023-04-16T08:05:04.193Z,6.60
2023-04-16T08:07:32.758Z,6.60
2023-04-16T08:10:00.747Z,6.70
2023-04-16T08:12:27.501Z,6.60
2023-04-16T08:14:54.397Z,6.70
2023-04-16T08:17:21.147Z,6.60
2023-04-16T08:19:48.158Z,6.70
2023-04-16T08:22:15.023Z,6.70
2023-04-16T08:24:41.797Z,6.70
2023-04-16T08:27:18.346Z,6.70
2023-04-16T08:29:46.296Z,6.70
2023-04-16T08:32:13.207Z,6.60
2023-04-16T08:34:42.121Z,6.70
2023-04-16T08:37:09.441Z,6.70
2023-04-16T08:39:36.239Z,6.70
2023-04-16T08:42:06.129Z,6.70
2023-04-16T08:44:35.048Z,6.70
2023-04-16T08:47:02.518Z,6.70
2023-04-16T08:49:29.895Z,6.70
2023-04-16T08:51:57.394Z,6.70
2023-04-16T08:54:42.747Z,6.70
2023-04-16T08:57:11.964Z,6.70
2023-04-16T08:59:40.071Z,6.70
2023-04-16T09:02:07.522Z,6.70
2023-04-16T09:04:34.722Z,6.70
2023-04-16T09:07:04.597Z,6.80
2023-04-16T09:09:34.628Z,6.80
2023-04-16T09:12:01.532Z,6.80
2023-04-16T09:14:28.777Z,6.80
2023-04-16T09:16:56.155Z,6.90
2023-04-16T09:19:23.590Z,6.90
2023-04-16T09:21:51.016Z,6.90
2023-04-16T09:24:18.360Z,6.90
2023-04-16T09:26:46.189Z,6.90
2023-04-16T09:29:33.456Z,6.90
2023-04-16T09:32:05.099Z,7.00
2023-04-16T09:34:36.194Z,7.00
2023-04-16T09:37:18.343Z,7.10
2023-04-16T09:39:52.984Z,7.10
2023-04-16T09:42:24.994Z,7.10
2023-04-16T09:44:52.457Z,7.10
2023-04-16T09:47:19.746Z,7.20
2023-04-16T09:49:47.165Z,7.20
2023-04-16T09:52:18.372Z,7.20
2023-04-16T09:54:51.610Z,7.30
2023-04-16T09:57:25.404Z,7.30
2023-04-16T10:00:03.060Z,7.30
2023-04-16T10:02:30.508Z,7.30
2023-04-16T10:04:57.946Z,7.30
2023-04-16T10:07:29.136Z,7.30
2023-04-16T10:09:56.645Z,7.30
2023-04-16T10:12:23.390Z,7.30
2023-04-16T10:14:50.698Z,7.30
2023-04-16T10:17:17.585Z,7.30
2023-04-16T10:19:45.588Z,7.30
2023-04-16T10:22:12.763Z,7.30
2023-04-16T10:24:41.131Z,7.40
2023-04-16T10:27:07.955Z,7.40
2023-04-16T10:29:36.112Z,7.30
2023-04-16T10:32:04.348Z,7.30
2023-04-16T10:34:31.954Z,7.30
2023-04-16T10:36:58.754Z,7.30
2023-04-16T10:39:28.485Z,7.30
2023-04-16T10:42:13.884Z,7.30
2023-04-16T10:44:44.293Z,7.30
2023-04-16T10:47:13.333Z,7.20
2023-04-16T10:49:41.381Z,7.20
2023-04-16T10:52:19.024Z,7.20
2023-04-16T10:54:47.950Z,7.20
2023-04-16T10:57:19.780Z,7.20
2023-04-16T10:59:48.955Z,7.30
2023-04-16T11:02:17.875Z,7.30
2023-04-16T11:04:46.622Z,7.30
2023-04-16T11:07:16.576Z,7.30
2023-04-16T11:09:49.775Z,7.30
2023-04-16T11:12:18.958Z,7.30
2023-04-16T11:14:52.614Z,7.30
2023-04-16T11:17:21.177Z,7.30
2023-04-16T11:19:48.321Z,7.40
2023-04-16T11:22:17.404Z,7.40
2023-04-16T11:24:45.913Z,7.40
2023-04-16T11:27:14.131Z,7.40
2023-04-16T11:29:41.518Z,7.40
2023-04-16T11:32:08.522Z,7.40
2023-04-16T11:34:42.879Z,7.40
2023-04-16T11:37:09.642Z,7.40
2023-04-16T11:39:56.600Z,7.40
2023-04-16T11:42:23.738Z,7.40
2023-04-16T11:44:55.062Z,7.50
2023-04-16T11:47:23.914Z,7.50
2023-04-16T11:49:51.482Z,7.50
2023-04-16T11:52:32.230Z,7.50
2023-04-16T11:54:59.671Z,7.50
2023-04-16T11:57:30.924Z,7.50
2023-04-16T12:00:01.426Z,7.50
2023-04-16T12:02:41.264Z,7.50
2023-04-16T12:05:28.718Z,7.50
2023-04-16T12:07:56.019Z,7.60
2023-04-16T12:10:22.849Z,7.60
2023-04-16T12:12:49.546Z,7.60
2023-04-16T12:15:16.313Z,7.60
2023-04-16T12:17:43.122Z,7.70
2023-04-16T12:20:11.054Z,7.60
2023-04-16T12:22:40.216Z,7.70
2023-04-16T12:25:15.095Z,7.70
2023-04-16T12:27:43.343Z,7.70
2023-04-16T12:30:10.615Z,7.60
2023-04-16T12:32:37.547Z,7.70
2023-04-16T12:35:05.253Z,7.70
2023-04-16T12:37:32.118Z,7.80
2023-04-16T12:39:58.820Z,7.80
2023-04-16T12:42:25.777Z,7.80
2023-04-16T12:44:52.790Z,7.80
2023-04-16T12:47:19.562Z,7.80
2023-04-16T12:49:46.326Z,7.80
2023-04-16T12:52:13.049Z,7.80
2023-04-16T12:54:39.752Z,7.80
2023-04-16T12:57:06.489Z,7.80
2023-04-16T12:59:33.132Z,7.80
2023-04-16T13:02:02.204Z,7.90
2023-04-16T13:04:29.025Z,7.90
2023-04-16T13:06:56.002Z,7.90
2023-04-16T13:09:22.753Z,7.90
2023-04-16T13:11:49.446Z,7.90
2023-04-16T13:14:16.303Z,7.90
2023-04-16T13:16:43.040Z,7.80
2023-04-16T13:19:10.022Z,7.80
2023-04-16T13:21:37.379Z,7.90
2023-04-16T13:24:04.217Z,7.90
2023-04-16T13:26:31.066Z,7.90
2023-04-16T13:28:58.014Z,7.80
2023-04-16T13:31:26.011Z,7.80
2023-04-16T13:33:52.956Z,7.80
2023-04-16T13:36:19.708Z,7.80
2023-04-16T13:38:46.463Z,7.90
2023-04-16T13:41:13.212Z,7.90
2023-04-16T13:43:39.918Z,7.90
2023-04-16T13:46:06.728Z,7.90
2023-04-16T13:48:33.424Z,7.90
2023-04-16T13:51:00.117Z,7.80
2023-04-16T13:53:26.826Z,7.80
2023-04-16T13:55:53.601Z,7.80
2023-04-16T13:58:20.643Z,7.80
2023-04-16T14:00:47.501Z,7.80
2023-04-16T14:03:14.619Z,7.80
2023-04-16T14:05:41.318Z,7.80
2023-04-16T14:08:08.379Z,7.80
2023-04-16T14:10:35.299Z,7.90
2023-04-16T14:13:02.143Z,7.90
2023-04-16T14:15:29.955Z,7.90
2023-04-16T14:17:56.790Z,7.90
2023-04-16T14:20:23.496Z,7.90
2023-04-16T14:22:50.179Z,7.90
2023-04-16T14:25:17.124Z,7.90
2023-04-16T14:27:43.774Z,7.90
2023-04-16T14:30:10.735Z,7.90
2023-04-16T14:32:37.600Z,7.90
2023-04-16T14:35:05.366Z,7.90
2023-04-16T14:37:32.350Z,7.90
2023-04-16T14:39:59.879Z,7.90
2023-04-16T14:42:27.042Z,7.90
2023-04-16T14:44:53.734Z,7.90
2023-04-16T14:47:20.400Z,7.90
2023-04-16T14:49:47.253Z,7.90
2023-04-16T14:52:14.093Z,7.90
2023-04-16T14:54:40.793Z,7.90
2023-04-16T14:57:07.582Z,7.90
2023-04-16T14:59:34.325Z,7.90
2023-04-16T15:02:01.341Z,7.90
2023-04-16T15:04:28.232Z,7.80
2023-04-16T15:06:58.905Z,7.90
2023-04-16T15:09:28.535Z,7.90
2023-04-16T15:11:55.578Z,7.90
2023-04-16T15:14:22.494Z,7.80
2023-04-16T15:16:49.620Z,7.80
2023-04-16T15:19:16.856Z,7.80
2023-04-16T15:21:44.009Z,7.80
2023-04-16T15:24:11.016Z,7.80
2023-04-16T15:26:38.307Z,7.80
2023-04-16T15:29:05.202Z,7.80
2023-04-16T15:31:31.916Z,7.80
2023-04-16T15:33:59.939Z,7.80
2023-04-16T15:36:26.764Z,7.80
2023-04-16T15:38:53.738Z,7.80
2023-04-16T15:41:20.875Z,7.80
2023-04-16T15:43:47.619Z,7.90
2023-04-16T15:46:15.123Z,7.80
2023-04-16T15:48:41.967Z,7.80
2023-04-16T15:51:08.799Z,7.80
2023-04-16T15:53:35.721Z,7.80
2023-04-16T15:56:02.463Z,7.80
2023-04-16T15:58:29.294Z,7.80
2023-04-16T16:00:56.229Z,7.80
2023-04-16T16:03:23.115Z,7.90
2023-04-16T16:05:50.137Z,7.80
2023-04-16T16:08:17.192Z,7.90
2023-04-16T16:10:44.023Z,7.90
2023-04-16T16:13:13.180Z,7.90
2023-04-16T16:15:43.195Z,7.90
2023-04-16T16:18:10.137Z,7.90
2023-04-16T16:20:37.291Z,7.90
2023-04-16T16:23:04.140Z,7.90
2023-04-16T16:25:31.113Z,7.90
2023-04-16T16:27:58.841Z,7.90
2023-04-16T16:30:26.370Z,7.90
2023-04-16T16:32:54.029Z,7.90
2023-04-16T16:35:20.901Z,7.90
2023-04-16T16:37:47.583Z,7.90
2023-04-16T16:40:14.428Z,7.90
2023-04-16T16:42:41.262Z,7.90
2023-04-16T16:45:08.781Z,7.90
2023-04-16T16:47:35.608Z,7.90
2023-04-16T16:50:03.237Z,7.80
2023-04-16T16:52:30.142Z,7.80
2023-04-16T16:54:56.861Z,7.80
2023-04-16T16:57:25.152Z,7.80
2023-04-16T16:59:52.550Z,7.90
2023-04-16T17:02:19.775Z,7.80
2023-04-16T17:04:46.966Z,7.80
2023-04-16T17:07:13.781Z,7.90
2023-04-16T17:09:41.033Z,7.80
2023-04-16T17:12:08.471Z,7.80
2023-04-16T17:14:35.694Z,7.80
2023-04-16T17:17:02.748Z,7.80
2023-04-16T17:19:29.783Z,7.80
2023-04-16T17:21:57.172Z,7.80
2023-04-16T17:24:24.199Z,7.80
2023-04-16T17:26:51.023Z,7.80
2023-04-16T17:29:18.196Z,7.80
2023-04-16T17:31:45.239Z,7.80
2023-04-16T17:34:12.638Z,7.80
2023-04-16T17:36:39.853Z,7.80
2023-04-16T17:39:06.560Z,7.80
2023-04-16T17:41:34.095Z,7.80
2023-04-16T17:44:01.634Z,7.80
2023-04-16T17:46:35.866Z,7.80
2023-04-16T17:49:08.740Z,7.80
2023-04-16T17:51:58.007Z,7.80
2023-04-16T17:54:37.007Z,7.80
2023-04-16T17:57:04.920Z,7.80
2023-04-16T17:59:31.633Z,7.80
2023-04-16T18:01:58.501Z,7.80
2023-04-16T18:04:25.479Z,7.80
2023-04-16T18:06:52.470Z,7.80
2023-04-16T18:09:19.673Z,7.80
2023-04-16T18:11:46.378Z,7.80
2023-04-16T18:14:20.221Z,7.80
2023-04-16T18:16:48.015Z,7.80
2023-04-16T18:19:16.724Z,7.80
2023-04-16T18:21:43.723Z,7.80
2023-04-16T18:24:10.906Z,7.70
2023-04-16T18:26:39.706Z,7.80
2023-04-16T18:29:07.689Z,7.80
2023-04-16T18:31:34.390Z,7.80
2023-04-16T18:34:01.381Z,7.80
2023-04-16T18:36:28.225Z,7.80
2023-04-16T18:39:02.214Z,7.80
2023-04-16T18:41:30.462Z,7.80
2023-04-16T18:43:57.509Z,7.70
2023-04-16T18:46:25.211Z,7.80
2023-04-16T18:48:52.211Z,7.80
2023-04-16T18:51:18.947Z,7.80
2023-04-16T18:53:45.937Z,7.70
2023-04-16T18:56:13.093Z,7.70
2023-04-16T18:58:39.776Z,7.80
2023-04-16T19:01:11.013Z,7.80
2023-04-16T19:03:38.433Z,7.70
2023-04-16T19:06:05.890Z,7.80
2023-04-16T19:08:33.051Z,7.70
2023-04-16T19:10:59.896Z,7.80
2023-04-16T19:13:26.789Z,7.70
2023-04-16T19:15:59.858Z,7.70
2023-04-16T19:18:27.021Z,7.80
2023-04-16T19:21:00.982Z,7.80
2023-04-16T19:23:28.188Z,7.80
2023-04-16T19:25:56.949Z,7.70
2023-04-16T19:28:24.695Z,7.80
2023-04-16T19:30:51.965Z,7.70
2023-04-16T19:33:18.996Z,7.70
2023-04-16T19:35:46.408Z,7.70
2023-04-16T19:38:13.364Z,7.80
2023-04-16T19:40:41.053Z,7.70
2023-04-16T19:43:08.043Z,7.70
2023-04-16T19:45:35.159Z,7.70
2023-04-16T19:48:02.226Z,7.70
2023-04-16T19:50:29.109Z,7.70
2023-04-16T19:52:55.963Z,7.70
2023-04-16T19:55:23.103Z,7.70
2023-04-16T19:57:49.847Z,7.70
2023-04-16T20:00:17.024Z,7.70
2023-04-16T20:02:43.860Z,7.70
2023-04-16T20:05:10.680Z,7.70
2023-04-16T20:07:37.332Z,7.70
2023-04-16T20:10:04.362Z,7.70
2023-04-16T20:12:31.167Z,7.70
2023-04-16T20:14:57.937Z,7.70
2023-04-16T20:17:24.712Z,7.70
2023-04-16T20:19:51.464Z,7.60
2023-04-16T20:22:18.852Z,7.60
2023-04-16T20:24:47.800Z,7.70
2023-04-16T20:27:15.367Z,7.70
2023-04-16T20:29:42.298Z,7.70
2023-04-16T20:32:09.211Z,7.70
2023-04-16T20:34:37.909Z,7.70
2023-04-16T20:37:04.965Z,7.60
2023-04-16T20:39:34.181Z,7.70
2023-04-16T20:42:04.236Z,7.60
2023-04-16T20:44:40.260Z,7.60
2023-04-16T20:47:11.680Z,7.60
2023-04-16T20:49:38.468Z,7.60
2023-04-16T20:52:05.664Z,7.60
2023-04-16T20:54:32.390Z,7.60
2023-04-16T20:56:59.193Z,7.60
2023-04-16T20:59:26.107Z,7.60
2023-04-16T21:01:52.900Z,7.60
2023-04-16T21:04:19.869Z,7.60
2023-04-16T21:06:47.026Z,7.60
2023-04-16T21:09:13.783Z,7.60
2023-04-16T21:11:40.718Z,7.60
2023-04-16T21:14:07.613Z,7.60
2023-04-16T21:16:34.613Z,7.50
2023-04-16T21:19:01.404Z,7.60
2023-04-16T21:21:28.544Z,7.60
2023-04-16T21:23:55.618Z,7.60
2023-04-16T21:26:22.346Z,7.60
2023-04-16T21:28:49.055Z,7.60
2023-04-16T21:31:15.773Z,7.60
2023-04-16T21:33:42.729Z,7.60
2023-04-16T21:36:10.367Z,7.60
2023-04-16T21:38:37.454Z,7.60
2023-04-16T21:41:04.223Z,7.60
2023-04-16T21:43:32.173Z,7.60
2023-04-16T21:45:59.688Z,7.50
2023-04-16T21:48:28.361Z,7.60
2023-04-16T21:50:59.912Z,7.60
2023-04-16T21:53:28.083Z,7.60
2023-04-16T21:55:54.844Z,7.60
2023-04-16T21:58:21.569Z,7.50
2023-04-16T22:00:48.342Z,7.60
2023-04-16T22:03:17.235Z,7.60
2023-04-16T22:05:44.982Z,7.60
2023-04-16T22:10:43.997Z,7.60
2023-04-16T22:13:13.878Z,7.60
2023-04-16T22:15:41.432Z,7.50
2023-04-16T22:18:09.735Z,7.50
2023-04-16T22:20:38.895Z,7.50
2023-04-16T22:23:06.854Z,7.50
2023-04-16T22:25:33.918Z,7.60
2023-04-16T22:28:01.655Z,7.60
2023-04-16T22:30:28.536Z,7.50
2023-04-16T22:32:55.281Z,7.50
2023-04-16T22:35:22.141Z,7.60
2023-04-16T22:37:48.947Z,7.60
2023-04-16T22:40:16.585Z,7.50
2023-04-16T22:42:43.362Z,7.50
2023-04-16T22:45:10.620Z,7.50
2023-04-16T22:47:37.542Z,7.50
2023-04-16T22:50:04.903Z,7.50
2023-04-16T22:52:31.738Z,7.50
2023-04-16T22:54:58.467Z,7.50
2023-04-16T22:57:25.769Z,7.50
2023-04-16T22:59:53.119Z,7.50
2023-04-16T23:02:20.791Z,7.50
2023-04-16T23:04:47.999Z,7.50
2023-04-16T23:07:15.626Z,7.50
2023-04-16T23:09:42.697Z,7.50
2023-04-16T23:12:09.461Z,7.50
2023-04-16T23:14:36.958Z,7.50
2023-04-16T23:17:03.955Z,7.50
2023-04-16T23:19:31.755Z,7.50
2023-04-16T23:21:58.790Z,7.50
2023-04-16T23:24:25.673Z,7.50
2023-04-16T23:26:52.701Z,7.50
2023-04-16T23:29:20.632Z,7.50
2023-04-16T23:31:47.841Z,7.50
2023-04-16T23:34:14.888Z,7.50
2023-04-16T23:36:41.799Z,7.50
2023-04-16T23:39:08.717Z,7.50
2023-04-16T23:41:35.657Z,7.50
2023-04-16T23:44:02.347Z,7.50
2023-04-16T23:46:29.214Z,7.50
2023-04-16T23:48:55.958Z,7.50
2023-04-16T23:51:22.726Z,7.50
2023-04-16T23:53:49.415Z,7.50
2023-04-16T23:56:16.573Z,7.50
2023-04-16T23:58:43.373Z,7.50
